Time;durP1;ratioP1;P1;durP2;ratioP2;P2;SDS_P1;SDS_P2;PMS_P1;PMS_P2;Temp;Humidity;BMP_temperature;BMP_pressure;BME280_temperature;BME280_humidity;BME280_pressure;Samples;Min_cycle;Max_cycle;Signal;HPM_P1;HPM_P2
2022/04/29 00:01:21;;;;;;;;;55.00;45.75;14.70;99.90;;;;;;4700852;30;8860;-65
2022/04/29 00:03:47;;;;;;;;;52.75;45.75;14.70;99.90;;;;;;4700859;30;8974;-65
2022/04/29 00:06:14;;;;;;;;;55.00;45.75;14.80;99.90;;;;;;4701133;30;8865;-65
2022/04/29 00:08:40;;;;;;;;;58.75;47.00;14.70;99.90;;;;;;4701111;30;8924;-65
2022/04/29 00:11:06;;;;;;;;;58.00;47.50;14.80;99.90;;;;;;4700945;30;8825;-65
2022/04/29 00:13:32;;;;;;;;;51.50;42.00;14.70;99.90;;;;;;4700750;30;8877;-65
2022/04/29 00:15:59;;;;;;;;;56.25;47.25;14.90;99.90;;;;;;4701029;30;8829;-65
2022/04/29 00:18:25;;;;;;;;;58.75;48.50;14.70;99.90;;;;;;4701202;30;8809;-65
2022/04/29 00:20:51;;;;;;;;;52.00;43.75;15.00;99.90;;;;;;4701005;30;8821;-65
2022/04/29 00:23:18;;;;;;;;;55.25;46.00;15.10;98.60;;;;;;4700759;30;8860;-65
2022/04/29 00:25:44;;;;;;;;;52.25;44.25;15.00;99.20;;;;;;4700698;30;8924;-65
2022/04/29 00:28:10;;;;;;;;;52.25;44.00;14.90;99.60;;;;;;4700708;30;8810;-65
2022/04/29 00:30:36;;;;;;;;;52.00;43.50;15.00;99.20;;;;;;4700633;30;8848;-65
2022/04/29 00:33:02;;;;;;;;;57.25;47.00;15.00;98.30;;;;;;4700652;30;8830;-65
2022/04/29 00:35:28;;;;;;;;;56.25;46.00;15.00;98.80;;;;;;4700508;30;8877;-63
2022/04/29 00:37:55;;;;;;;;;56.50;47.50;15.00;99.40;;;;;;4700830;30;8861;-63
2022/04/29 00:40:28;;;;;;;;;58.00;47.50;14.80;99.70;;;;;;4700956;30;9630;-65
2022/04/29 00:42:54;;;;;;;;;53.75;43.50;14.80;99.50;;;;;;4700626;30;8808;-65
2022/04/29 00:45:22;;;;;;;;;58.50;47.00;14.80;99.60;;;;;;4700563;30;8826;-65
2022/04/29 00:47:50;;;;;;;;;53.25;42.75;14.90;99.10;;;;;;4700524;30;8852;-65
2022/04/29 00:50:20;;;;;;;;;56.50;46.00;15.00;98.80;;;;;;4700515;30;8813;-65
2022/04/29 00:52:48;;;;;;;;;57.50;47.25;15.00;98.50;;;;;;4700621;30;8891;-65
2022/04/29 00:55:15;;;;;;;;;55.50;46.25;15.00;97.70;;;;;;4699537;30;8869;-65
2022/04/29 00:58:20;;;;;;;;;61.00;48.50;15.00;98.00;;;;;;4700768;30;8978;-65
2022/04/29 01:00:46;;;;;;;;;60.00;49.75;14.90;98.60;;;;;;4683455;30;8848;-65
2022/04/29 01:03:13;;;;;;;;;57.00;48.00;15.00;98.10;;;;;;4702755;30;8911;-65
2022/04/29 01:05:40;;;;;;;;;63.75;50.00;14.40;99.90;;;;;;4703316;30;8813;-65
2022/04/29 01:08:07;;;;;;;;;57.50;48.00;14.60;99.90;;;;;;4703400;30;8817;-65
2022/04/29 01:10:33;;;;;;;;;58.25;47.00;14.80;99.80;;;;;;4703659;30;8907;-65
2022/04/29 01:13:00;;;;;;;;;54.75;44.25;15.00;98.20;;;;;;4703579;30;8822;-65
2022/04/29 01:15:27;;;;;;;;;61.00;50.25;14.70;99.90;;;;;;4703552;30;8883;-65
2022/04/29 01:18:01;;;;;;;;;54.75;45.75;14.40;99.90;;;;;;4703544;30;8936;-65
2022/04/29 01:20:30;;;;;;;;;55.50;47.25;13.30;99.90;;;;;;4703317;30;8817;-65
2022/04/29 01:22:56;;;;;;;;;57.00;48.25;12.40;99.90;;;;;;4703246;30;8872;-65
2022/04/29 01:25:22;;;;;;;;;61.50;48.50;12.20;99.90;;;;;;4703370;30;8849;-65
2022/04/29 01:27:49;;;;;;;;;56.75;47.25;12.50;99.90;;;;;;4703330;30;8853;-65
2022/04/29 01:30:18;;;;;;;;;55.25;45.75;12.30;99.90;;;;;;4703338;30;8832;-65
2022/04/29 01:32:44;;;;;;;;;61.50;48.00;12.50;99.90;;;;;;4703321;30;9477;-65
2022/04/29 01:35:12;;;;;;;;;61.75;51.25;12.60;99.90;;;;;;4702973;30;8875;-65
2022/04/29 01:37:39;;;;;;;;;56.25;46.25;12.30;99.90;;;;;;4703327;30;8861;-65
2022/04/29 01:40:09;;;;;;;;;59.00;47.50;12.20;99.90;;;;;;4702970;30;9453;-65
2022/04/29 01:42:35;;;;;;;;;57.50;48.25;12.20;99.90;;;;;;4702831;30;8838;-65
2022/04/29 01:45:00;;;;;;;;;66.00;51.50;12.10;99.90;;;;;;4703063;30;8826;-66
2022/04/29 01:47:26;;;;;;;;;62.00;50.00;11.90;99.90;;;;;;4703008;30;9591;-65
2022/04/29 01:49:52;;;;;;;;;63.00;51.00;12.40;99.90;;;;;;4702797;30;9584;-65
2022/04/29 01:52:18;;;;;;;;;59.75;49.25;12.50;99.90;;;;;;4702691;30;8852;-65
2022/04/29 01:54:43;;;;;;;;;61.50;49.75;12.60;99.90;;;;;;4702643;30;8865;-65
2022/04/29 01:57:09;;;;;;;;;62.25;51.50;12.40;99.90;;;;;;4702505;30;8876;-65
2022/04/29 01:59:38;;;;;;;;;65.50;52.50;12.60;99.90;;;;;;4702864;30;8982;-65
2022/04/29 02:02:06;;;;;;;;;66.75;52.75;12.00;99.90;;;;;;4702797;30;8943;-65
2022/04/29 02:04:34;;;;;;;;;61.00;50.50;12.20;99.90;;;;;;4702820;30;8876;-65
2022/04/29 02:07:00;;;;;;;;;66.00;51.00;12.20;99.90;;;;;;4702542;30;9587;-65
2022/04/29 02:09:26;;;;;;;;;45.00;39.25;12.30;99.90;;;;;;4702152;30;8841;-64
2022/04/29 02:12:04;;;;;;;;;60.25;49.25;12.30;99.90;;;;;;4702531;30;8990;-65
2022/04/29 02:14:49;;;;;;;;;62.50;50.25;12.60;99.90;;;;;;4702319;30;9628;-65
2022/04/29 02:17:14;;;;;;;;;58.75;47.50;13.00;99.90;;;;;;4702563;30;9497;-65
2022/04/29 02:19:40;;;;;;;;;61.50;48.00;12.50;99.90;;;;;;4702253;30;8836;-65
2022/04/29 02:22:08;;;;;;;;;62.00;51.00;12.10;99.90;;;;;;4702529;30;8821;-65
2022/04/29 02:24:34;;;;;;;;;59.75;48.50;11.70;99.90;;;;;;4702153;30;8817;-65
2022/04/29 02:27:02;;;;;;;;;61.00;49.50;11.80;99.90;;;;;;4702432;30;8833;-65
2022/04/29 02:29:28;;;;;;;;;58.50;49.25;12.30;99.90;;;;;;4702329;30;9584;-64
2022/04/29 02:31:55;;;;;;;;;60.25;47.25;12.70;99.90;;;;;;4702312;30;8817;-64
2022/04/29 02:34:20;;;;;;;;;61.50;50.00;12.70;99.90;;;;;;4702178;30;8876;-64
2022/04/29 02:36:47;;;;;;;;;60.00;48.25;12.70;99.90;;;;;;4701917;30;8954;-64
2022/04/29 02:39:13;;;;;;;;;56.00;46.25;12.20;99.90;;;;;;4702234;30;8862;-64
2022/04/29 02:41:40;;;;;;;;;58.25;48.00;12.60;99.90;;;;;;4701925;30;8836;-64
2022/04/29 02:44:05;;;;;;;;;62.25;50.00;12.80;99.90;;;;;;4701839;30;8848;-66
2022/04/29 02:46:32;;;;;;;;;62.25;48.00;12.60;99.90;;;;;;4702082;30;8809;-64
2022/04/29 02:48:57;;;;;;;;;59.25;50.00;12.20;99.90;;;;;;4701856;30;8900;-64
2022/04/29 02:51:23;;;;;;;;;61.50;49.50;12.00;99.90;;;;;;4701809;30;8809;-64
2022/04/29 02:53:49;;;;;;;;;60.25;50.25;11.90;99.90;;;;;;4715407;30;8992;-64
2022/04/29 02:56:15;;;;;;;;;62.25;50.75;11.60;99.90;;;;;;4701592;30;8922;-64
2022/04/29 02:58:41;;;;;;;;;68.75;53.00;11.30;99.90;;;;;;4701928;30;8947;-64
2022/04/29 03:01:07;;;;;;;;;67.00;54.75;11.40;99.90;;;;;;4700181;30;8830;-64
2022/04/29 03:03:32;;;;;;;;;65.75;53.50;11.80;99.90;;;;;;4701816;30;8833;-64
2022/04/29 03:05:58;;;;;;;;;69.00;55.25;11.60;99.90;;;;;;4697049;30;8853;-64
2022/04/29 03:08:24;;;;;;;;;70.25;56.50;11.50;99.90;;;;;;4701610;30;8833;-64
2022/04/29 03:10:50;;;;;;;;;68.75;54.00;12.10;99.90;;;;;;4701616;30;8855;-64
2022/04/29 03:13:15;;;;;;;;;65.50;51.00;12.10;99.90;;;;;;4701639;30;8872;-64
2022/04/29 03:15:41;;;;;;;;;62.75;51.50;11.90;99.90;;;;;;4701483;30;9548;-64
2022/04/29 03:18:21;;;;;;;;;66.25;52.25;11.80;99.90;;;;;;4701352;30;8949;-64
2022/04/29 03:20:56;;;;;;;;;63.50;52.50;11.60;99.90;;;;;;4701384;30;8840;-64
2022/04/29 03:23:22;;;;;;;;;67.50;54.00;11.70;99.90;;;;;;4701304;30;8856;-64
2022/04/29 03:25:48;;;;;;;;;72.00;56.75;11.60;99.90;;;;;;4700680;30;8813;-64
2022/04/29 03:28:15;;;;;;;;;64.75;52.50;11.40;99.90;;;;;;4701287;30;8817;-65
2022/04/29 03:30:41;;;;;;;;;63.50;50.00;11.50;99.90;;;;;;4701427;30;8829;-64
2022/04/29 03:33:07;;;;;;;;;62.00;52.00;11.70;99.90;;;;;;4701486;30;8806;-64
2022/04/29 03:35:41;;;;;;;;;67.00;54.75;11.80;99.90;;;;;;4701274;30;8877;-64
2022/04/29 03:38:07;;;;;;;;;66.50;53.00;11.70;99.90;;;;;;4700901;30;8826;-64
2022/04/29 03:40:33;;;;;;;;;61.75;48.75;12.00;99.90;;;;;;4700838;30;8849;-64
2022/04/29 03:42:59;;;;;;;;;63.50;52.00;12.00;99.90;;;;;;4701259;30;8857;-64
2022/04/29 03:45:26;;;;;;;;;58.25;48.50;12.00;99.90;;;;;;4701290;30;8908;-64
2022/04/29 03:47:55;;;;;;;;;66.75;53.00;12.30;99.90;;;;;;4700993;30;8829;-65
2022/04/29 03:50:23;;;;;;;;;66.00;53.25;12.70;99.90;;;;;;4701065;30;8833;-64
2022/04/29 03:52:56;;;;;;;;;57.75;48.25;13.00;99.90;;;;;;4701221;30;8826;-64
2022/04/29 03:55:25;;;;;;;;;60.50;49.50;13.20;99.90;;;;;;4700942;30;8895;-65
2022/04/29 03:57:53;;;;;;;;;60.50;50.75;13.50;99.90;;;;;;4701027;30;8790;-64
2022/04/29 04:00:20;;;;;;;;;67.50;53.00;13.40;99.90;;;;;;4700876;30;8825;-64
2022/04/29 04:02:45;;;;;;;;;64.00;51.25;13.00;99.90;;;;;;4728912;30;8931;-64
2022/04/29 04:05:12;;;;;;;;;66.75;52.00;13.00;99.90;;;;;;4701128;30;8952;-64
2022/04/29 04:07:38;;;;;;;;;64.50;51.75;12.90;99.90;;;;;;4701462;30;8883;-65
2022/04/29 04:10:05;;;;;;;;;64.50;52.50;13.30;99.90;;;;;;4701018;30;8829;-64
2022/04/29 04:12:41;;;;;;;;;64.75;52.00;13.30;99.90;;;;;;4700744;30;8836;-64
2022/04/29 04:15:09;;;;;;;;;61.25;50.25;12.50;99.90;;;;;;4701149;30;8849;-64
2022/04/29 04:17:35;;;;;;;;;63.50;52.50;12.50;99.90;;;;;;4701036;30;8813;-64
2022/04/29 04:20:00;;;;;;;;;62.75;51.75;12.60;99.90;;;;;;4700734;30;8826;-64
2022/04/29 04:22:27;;;;;;;;;64.50;52.25;13.10;99.90;;;;;;4700996;30;8907;-64
2022/04/29 04:24:54;;;;;;;;;69.00;54.00;13.40;99.90;;;;;;4700786;30;8968;-65
2022/04/29 04:27:19;;;;;;;;;62.75;51.25;13.60;99.90;;;;;;4700942;30;8852;-65
2022/04/29 04:29:45;;;;;;;;;64.25;50.50;13.50;99.90;;;;;;4700599;30;8822;-65
2022/04/29 04:32:11;;;;;;;;;64.00;52.00;13.00;99.90;;;;;;4700883;30;8826;-64
2022/04/29 04:34:52;;;;;;;;;60.75;51.50;13.10;99.90;;;;;;4700539;30;8865;-65
2022/04/29 04:37:20;;;;;;;;;69.75;55.00;13.70;99.90;;;;;;4703665;30;8834;-64
2022/04/29 04:39:46;;;;;;;;;62.25;52.00;14.10;99.90;;;;;;4702487;30;8821;-64
2022/04/29 04:42:12;;;;;;;;;63.00;51.25;14.40;99.90;;;;;;4703303;30;8915;-64
2022/04/29 04:44:38;;;;;;;;;65.25;52.25;14.40;99.50;;;;;;4703576;30;8841;-64
2022/04/29 04:47:05;;;;;;;;;60.25;49.75;14.20;99.90;;;;;;4703876;30;8794;-64
2022/04/29 04:49:32;;;;;;;;;60.25;48.50;14.30;99.90;;;;;;4703743;30;8940;-64
2022/04/29 04:51:58;;;;;;;;;59.00;49.25;13.30;99.90;;;;;;4703539;30;8821;-64
2022/04/29 04:54:23;;;;;;;;;60.25;49.50;13.40;99.90;;;;;;4703560;30;8888;-64
2022/04/29 04:56:49;;;;;;;;;57.75;47.25;13.10;99.90;;;;;;4703586;30;8857;-64
2022/04/29 04:59:15;;;;;;;;;62.25;50.75;13.50;99.90;;;;;;4703561;30;8818;-64
2022/04/29 05:01:41;;;;;;;;;56.50;46.00;13.10;99.90;;;;;;4702353;30;8962;-64
2022/04/29 05:04:07;;;;;;;;;55.25;46.00;12.40;99.90;;;;;;4702570;30;8927;-64
2022/04/29 05:06:33;;;;;;;;;63.25;50.00;12.30;99.90;;;;;;4702089;30;8903;-61
2022/04/29 05:08:58;;;;;;;;;61.75;50.25;11.80;99.90;;;;;;4703156;30;8862;-63
2022/04/29 05:11:24;;;;;;;;;61.75;50.25;11.90;99.90;;;;;;4702192;30;8872;-63
2022/04/29 05:13:50;;;;;;;;;61.50;51.00;11.90;99.90;;;;;;4703074;30;8894;-64
2022/04/29 05:16:16;;;;;;;;;59.50;49.00;11.90;99.90;;;;;;4702936;30;8810;-65
2022/04/29 05:18:41;;;;;;;;;57.75;48.25;12.30;99.90;;;;;;4703190;30;8833;-64
2022/04/29 05:21:07;;;;;;;;;59.25;49.00;12.30;99.90;;;;;;4703376;30;8856;-64
2022/04/29 05:23:36;;;;;;;;;65.25;51.00;12.20;99.90;;;;;;4703176;30;8849;-64
2022/04/29 05:26:02;;;;;;;;;58.50;47.25;12.30;99.90;;;;;;4703442;30;8822;-64
2022/04/29 05:28:28;;;;;;;;;60.25;49.75;12.20;99.90;;;;;;4703127;30;8910;-64
2022/04/29 05:30:55;;;;;;;;;62.25;51.25;12.30;99.90;;;;;;4703415;30;8814;-64
2022/04/29 05:33:22;;;;;;;;;58.75;47.25;12.30;99.90;;;;;;4703199;30;8839;-64
2022/04/29 05:35:47;;;;;;;;;56.25;46.00;12.50;99.90;;;;;;4702947;30;8850;-65
2022/04/29 05:38:13;;;;;;;;;59.25;49.25;12.90;99.90;;;;;;4702932;30;8959;-64
2022/04/29 05:43:23;;;;;;;;;55.50;46.25;12.70;99.90;;;;;;4702982;30;8841;-64
2022/04/29 05:45:49;;;;;;;;;58.00;47.00;12.50;99.90;;;;;;4703078;30;8824;-64
2022/04/29 05:48:15;;;;;;;;;60.00;48.75;12.80;99.90;;;;;;4702012;30;9529;-65
2022/04/29 05:50:41;;;;;;;;;51.25;43.00;13.10;99.90;;;;;;4702725;30;8931;-64
2022/04/29 05:53:06;;;;;;;;;58.50;46.75;13.00;99.90;;;;;;4702641;30;8856;-64
2022/04/29 05:55:32;;;;;;;;;57.00;47.50;13.20;99.90;;;;;;4702596;30;8881;-65
2022/04/29 05:57:58;;;;;;;;;61.50;49.00;13.00;99.90;;;;;;4702633;30;8848;-64
2022/04/29 06:00:23;;;;;;;;;55.50;45.75;13.10;99.90;;;;;;4702682;30;8853;-64
2022/04/29 06:02:49;;;;;;;;;57.00;46.50;13.30;99.90;;;;;;4702819;30;8930;-64
2022/04/29 06:05:15;;;;;;;;;58.00;47.50;13.60;99.90;;;;;;4702805;30;8841;-64
2022/04/29 06:07:41;;;;;;;;;59.25;48.00;13.20;99.90;;;;;;4702831;30;9040;-65
2022/04/29 06:10:07;;;;;;;;;58.75;48.25;13.30;99.90;;;;;;4702330;30;8841;-65
2022/04/29 06:12:41;;;;;;;;;62.75;50.00;13.50;99.90;;;;;;4702543;30;8859;-64
2022/04/29 06:15:12;;;;;;;;;60.75;49.00;13.70;99.90;;;;;;4702229;30;9058;-64
2022/04/29 06:17:37;;;;;;;;;55.25;46.50;13.60;99.90;;;;;;4702256;30;8851;-65
2022/04/29 06:20:04;;;;;;;;;60.75;49.50;13.60;99.90;;;;;;4702138;30;8841;-65
2022/04/29 06:22:30;;;;;;;;;59.00;48.25;13.60;99.90;;;;;;4702328;30;8830;-64
2022/04/29 06:24:56;;;;;;;;;51.00;43.25;13.70;99.90;;;;;;4702235;30;8860;-64
2022/04/29 06:27:22;;;;;;;;;56.50;46.25;13.80;99.90;;;;;;4702370;30;8825;-65
2022/04/29 06:29:47;;;;;;;;;56.00;47.00;13.70;99.90;;;;;;4702129;30;8903;-64
2022/04/29 06:32:13;;;;;;;;;53.25;45.50;14.20;99.90;;;;;;4715829;30;8814;-64
2022/04/29 06:34:39;;;;;;;;;56.25;46.25;14.10;99.90;;;;;;4702062;30;8892;-64
2022/04/29 06:37:06;;;;;;;;;51.50;43.25;14.00;99.90;;;;;;4701925;30;8932;-66
2022/04/29 06:39:32;;;;;;;;;56.75;46.00;14.10;99.90;;;;;;4702197;30;8832;-64
2022/04/29 06:41:57;;;;;;;;;44.50;36.75;13.90;99.90;;;;;;4701906;30;8833;-63
2022/04/29 06:44:23;;;;;;;;;53.25;44.00;13.80;99.90;;;;;;4702067;30;8822;-64
2022/04/29 06:46:50;;;;;;;;;57.25;45.75;13.90;99.90;;;;;;4701826;30;8938;-64
2022/04/29 06:49:17;;;;;;;;;56.00;46.50;14.20;99.90;;;;;;4701766;30;8833;-64
2022/04/29 06:51:42;;;;;;;;;58.50;46.00;14.20;99.90;;;;;;4701768;30;8919;-65
2022/04/29 06:54:08;;;;;;;;;54.25;44.25;14.40;99.90;;;;;;4701668;30;8849;-64
2022/04/29 06:56:34;;;;;;;;;53.75;46.00;14.50;99.90;;;;;;4701650;30;8865;-63
2022/04/29 06:59:03;;;;;;;;;57.00;47.00;14.70;99.90;;;;;;4715109;30;8893;-65
2022/04/29 07:01:29;;;;;;;;;54.25;44.50;15.10;99.90;;;;;;4701844;30;8887;-64
2022/04/29 07:03:54;;;;;;;;;49.25;40.75;15.50;99.90;;;;;;4701546;30;9619;-63
2022/04/29 07:06:22;;;;;;;;;50.00;40.75;15.60;99.90;;;;;;4701722;30;8869;-64
2022/04/29 07:08:48;;;;;;;;;47.00;39.50;15.60;99.90;;;;;;4701497;30;8852;-64
2022/04/29 07:11:14;;;;;;;;;48.75;40.75;15.70;99.90;;;;;;4701432;30;8821;-64
2022/04/29 07:13:42;;;;;;;;;53.25;44.00;15.70;99.90;;;;;;4701576;30;8947;-64
2022/04/29 07:16:08;;;;;;;;;52.00;43.50;15.70;99.90;;;;;;4701562;30;8837;-64
2022/04/29 07:18:34;;;;;;;;;50.75;42.00;15.80;99.90;;;;;;4701437;30;8826;-64
2022/04/29 07:21:00;;;;;;;;;46.75;39.75;15.90;99.90;;;;;;4701617;30;8833;-67
2022/04/29 07:23:26;;;;;;;;;48.25;40.25;16.00;99.90;;;;;;4701543;30;8837;-63
2022/04/29 07:25:51;;;;;;;;;47.00;39.75;16.20;99.90;;;;;;4701554;30;8948;-64
2022/04/29 07:28:17;;;;;;;;;51.50;44.00;16.40;99.90;;;;;;4701455;30;8833;-62
2022/04/29 07:30:43;;;;;;;;;45.25;38.00;16.40;99.90;;;;;;4701221;30;9534;-63
2022/04/29 07:33:09;;;;;;;;;47.50;39.50;16.10;99.90;;;;;;4701376;30;8915;-62
2022/04/29 07:43:47;;;;;;;;;37.00;34.00;16.40;99.90;;;;;;4701185;30;8924;-61
2022/04/29 07:46:12;;;;;;;;;40.00;36.00;16.80;96.90;;;;;;4701078;30;9742;-62
2022/04/29 07:48:39;;;;;;;;;43.75;38.00;17.00;94.60;;;;;;4701277;30;8833;-64
2022/04/29 07:51:06;;;;;;;;;45.67;37.00;17.00;83.30;;;;;;4701018;30;8956;-61
2022/04/29 07:53:32;;;;;;;;;34.67;30.33;17.10;81.70;;;;;;4701176;30;9672;-63
2022/04/29 07:55:58;;;;;;;;;30.67;30.67;17.50;78.20;;;;;;4700887;30;9509;-62
2022/04/29 07:58:23;;;;;;;;;35.33;32.00;17.80;76.60;;;;;;4701182;30;8856;-63
2022/04/29 08:00:50;;;;;;;;;35.67;32.33;18.00;74.70;;;;;;4700896;30;9503;-64
2022/04/29 08:03:15;;;;;;;;;37.33;34.00;17.70;76.00;;;;;;4700957;30;8844;-62
2022/04/29 08:05:41;;;;;;;;;29.67;28.67;18.10;74.60;;;;;;4700997;30;8837;-62
2022/04/29 08:08:07;;;;;;;;;34.00;32.33;17.50;74.60;;;;;;4701127;30;9414;-64
2022/04/29 08:10:33;;;;;;;;;39.67;33.67;17.40;75.50;;;;;;4701226;30;8853;-62
2022/04/29 08:13:02;;;;;;;;;31.33;30.33;17.30;75.80;;;;;;4704301;30;8829;-63
2022/04/29 08:15:30;;;;;;;;;39.00;35.00;17.20;75.80;;;;;;4704454;30;8896;-63
2022/04/29 08:17:57;;;;;;;;;42.00;36.00;17.50;75.30;;;;;;4704040;30;8892;-63
2022/04/29 08:20:23;;;;;;;;;37.00;32.67;17.40;75.70;;;;;;4704135;30;8837;-62
2022/04/29 08:22:50;;;;;;;;;40.67;35.67;17.60;71.40;;;;;;4704421;30;8912;-64
2022/04/29 08:25:18;;;;;;;;;37.33;33.00;17.70;71.60;;;;;;4704099;30;8841;-63
2022/04/29 08:27:44;;;;;;;;;40.00;33.00;18.10;70.00;;;;;;4704182;30;8847;-63
2022/04/29 08:30:10;;;;;;;;;43.33;35.33;18.20;69.30;;;;;;4703873;30;8860;-63
2022/04/29 08:32:41;;;;;;;;;31.33;29.67;18.80;67.80;;;;;;4704004;30;8822;-64
2022/04/29 08:35:09;;;;;;;;;36.67;34.67;18.50;68.90;;;;;;4703765;30;8849;-64
2022/04/29 08:37:40;;;;;;;;;38.67;33.33;17.50;71.00;;;;;;4704213;30;8869;-65
2022/04/29 08:40:07;;;;;;;;;42.33;37.33;17.10;76.00;;;;;;4703919;30;8887;-63
2022/04/29 08:42:38;;;;;;;;;49.00;41.00;17.60;73.90;;;;;;4703962;30;8895;-61
2022/04/29 08:45:09;;;;;;;;;41.67;36.00;17.50;74.00;;;;;;4717291;30;8861;-63
2022/04/29 08:47:37;;;;;;;;;42.67;36.00;17.90;72.60;;;;;;4703917;30;8825;-62
2022/04/29 08:50:08;;;;;;;;;39.67;34.33;17.80;71.40;;;;;;4703800;30;8853;-64
2022/04/29 08:52:35;;;;;;;;;36.00;32.67;18.10;73.70;;;;;;4703583;30;8995;-63
2022/04/29 09:00:32;;;;;;;;;35.00;32.33;18.20;71.30;;;;;;4703501;30;8809;-64
2022/04/29 09:03:00;;;;;;;;;41.00;36.67;18.00;68.10;;;;;;4703737;30;8836;-61
2022/04/29 09:05:26;;;;;;;;;39.00;36.00;18.00;70.00;;;;;;4703480;30;8852;-62
2022/04/29 09:07:55;;;;;;;;;31.67;31.33;18.50;67.00;;;;;;4703381;30;8818;-63
2022/04/29 09:10:23;;;;;;;;;32.67;31.67;18.50;64.60;;;;;;4703617;30;8939;-63
2022/04/29 09:12:49;;;;;;;;;34.67;33.33;18.70;64.40;;;;;;4703342;30;8829;-63
2022/04/29 09:15:15;;;;;;;;;24.33;23.33;18.50;66.00;;;;;;4703272;30;8850;-62
2022/04/29 09:17:46;;;;;;;;;27.67;27.67;18.40;65.70;;;;;;4703284;30;8826;-65
2022/04/29 09:20:21;;;;;;;;;25.67;24.33;18.30;63.10;;;;;;4703542;30;8814;-61
2022/04/29 09:22:50;;;;;;;;;16.67;16.00;18.20;62.60;;;;;;4702464;30;8928;-62
2022/04/29 09:25:17;;;;;;;;;20.00;19.00;18.30;62.50;;;;;;4703216;30;8844;-61
2022/04/29 09:28:03;;;;;;;;;24.00;24.00;18.40;62.30;;;;;;4703418;30;8833;-64
2022/04/29 09:30:32;;;;;;;;;22.33;20.33;18.60;62.10;;;;;;4703025;30;8817;-64
2022/04/29 09:32:57;;;;;;;;;23.00;22.00;18.80;61.00;;;;;;4703215;30;8918;-62
2022/04/29 09:35:41;;;;;;;;;26.00;22.33;19.30;59.90;;;;;;4702759;30;9675;-63
2022/04/29 09:40:54;;;;;;;;;23.33;23.33;18.90;59.60;;;;;;4703005;30;8821;-63
2022/04/29 09:43:32;;;;;;;;;23.33;22.67;19.60;59.70;;;;;;4702768;30;8806;-61
2022/04/29 09:46:23;;;;;;;;;23.33;22.67;19.80;56.50;;;;;;4703076;30;8833;-62
2022/04/29 09:48:52;;;;;;;;;28.00;26.00;20.00;56.70;;;;;;4702836;30;8811;-61
2022/04/29 09:52:02;;;;;;;;;20.67;20.33;19.60;57.00;;;;;;4702884;30;8813;-61
2022/04/29 09:54:30;;;;;;;;;26.33;24.00;19.10;57.00;;;;;;4700029;30;8925;-65
2022/04/29 09:57:11;;;;;;;;;22.67;22.33;19.40;57.30;;;;;;4702567;30;9540;-65
2022/04/29 09:59:44;;;;;;;;;24.33;24.33;19.30;56.00;;;;;;4702755;30;8825;-62
2022/04/29 10:02:11;;;;;;;;;26.67;26.67;19.80;54.50;;;;;;4702740;30;8817;-63
2022/04/29 10:04:40;;;;;;;;;27.33;25.00;19.60;55.90;;;;;;4702302;30;8916;-63
2022/04/29 10:07:08;;;;;;;;;23.67;23.00;19.20;56.20;;;;;;4702622;30;8871;-62
2022/04/29 10:09:40;;;;;;;;;22.67;22.67;19.90;55.40;;;;;;4702423;30;8928;-63
2022/04/29 10:12:14;;;;;;;;;20.67;20.67;19.40;57.30;;;;;;4702530;30;8948;-61
2022/04/29 10:14:41;;;;;;;;;29.00;25.67;19.50;56.50;;;;;;4702398;30;8951;-63
2022/04/29 10:22:46;;;;;;;;;26.33;26.33;19.70;54.60;;;;;;4702281;30;8817;-63
2022/04/29 10:25:12;;;;;;;;;24.33;23.67;19.40;56.60;;;;;;4702101;30;8836;-62
2022/04/29 10:27:42;;;;;;;;;19.33;19.33;19.60;54.20;;;;;;4702086;30;8856;-62
2022/04/29 10:30:09;;;;;;;;;20.33;19.33;20.00;52.00;;;;;;4702251;30;8814;-63
2022/04/29 10:33:13;;;;;;;;;29.33;26.33;19.70;52.10;;;;;;4701912;30;8805;-62
2022/04/29 10:35:39;;;;;;;;;26.33;25.00;19.10;55.60;;;;;;4692250;30;8865;-61
2022/04/29 10:38:18;;;;;;;;;26.33;26.33;18.70;58.10;;;;;;4701880;30;8860;-63
2022/04/29 10:40:45;;;;;;;;;28.33;27.67;18.50;60.60;;;;;;4701817;30;8825;-63
2022/04/29 10:43:15;;;;;;;;;28.00;26.33;18.50;57.60;;;;;;4701801;30;8840;-62
2022/04/29 10:46:37;;;;;;;;;30.67;29.33;19.00;56.80;;;;;;4702104;30;8850;-61
2022/04/29 10:49:35;;;;;;;;;28.00;27.00;18.30;59.10;;;;;;4648449;30;8858;-61
2022/04/29 10:52:02;;;;;;;;;28.33;28.33;19.00;58.60;;;;;;4581693;31;8876;-62
2022/04/29 10:54:34;;;;;;;;;24.00;22.00;18.80;56.70;;;;;;4581495;31;8955;-61
2022/04/29 10:57:06;;;;;;;;;24.67;21.67;18.40;57.20;;;;;;4581470;31;8875;-62
2022/04/29 10:59:54;;;;;;;;;26.33;26.33;18.90;55.80;;;;;;4581681;31;8896;-61
2022/04/29 11:02:29;;;;;;;;;19.33;18.67;18.40;56.70;;;;;;4581597;31;8867;-63
2022/04/29 11:04:57;;;;;;;;;17.33;14.67;18.80;55.90;;;;;;4581526;31;8843;-63
2022/04/29 11:07:31;;;;;;;;;23.00;22.00;18.80;55.40;;;;;;4581355;31;8900;-62
2022/04/29 11:09:57;;;;;;;;;19.33;19.33;18.80;55.10;;;;;;4581510;31;8861;-63
2022/04/29 11:12:31;;;;;;;;;22.67;21.33;18.70;55.60;;;;;;4581296;31;8870;-62
2022/04/29 11:15:18;;;;;;;;;20.33;20.33;19.10;53.80;;;;;;4581310;31;8973;-64
2022/04/29 11:17:44;;;;;;;;;24.67;23.67;19.70;53.10;;;;;;4581328;31;8855;-64
2022/04/29 11:20:31;;;;;;;;;20.67;19.33;20.40;52.10;;;;;;4620108;30;8866;-62
2022/04/29 11:25:54;;;;;;;;;22.67;21.00;20.40;50.00;;;;;;4631197;30;8837;-64
2022/04/29 11:28:20;;;;;;;;;18.00;17.00;20.50;50.10;;;;;;4687547;30;8848;-63
2022/04/29 11:30:48;;;;;;;;;15.67;15.67;20.10;49.20;;;;;;4701436;30;8820;-64
2022/04/29 11:33:14;;;;;;;;;12.67;12.67;20.40;48.30;;;;;;4701357;30;8814;-61
2022/04/29 11:35:40;;;;;;;;;13.33;13.33;19.60;48.30;;;;;;4700927;30;8905;-61
2022/04/29 11:38:09;;;;;;;;;16.33;15.33;19.20;50.00;;;;;;4701029;30;8839;-61
2022/04/29 11:40:38;;;;;;;;;15.00;15.00;19.60;49.00;;;;;;4701238;30;8848;-62
2022/04/29 11:43:10;;;;;;;;;15.00;14.33;20.30;48.30;;;;;;4700918;30;8923;-62
2022/04/29 11:45:37;;;;;;;;;14.67;14.67;19.70;50.50;;;;;;4700452;30;8852;-61
2022/04/29 11:48:07;;;;;;;;;17.33;16.33;19.60;50.30;;;;;;4700976;30;8810;-61
2022/04/29 11:50:35;;;;;;;;;21.67;20.00;19.60;51.20;;;;;;4701147;30;9558;-63
2022/04/29 11:53:08;;;;;;;;;15.67;15.67;19.90;48.80;;;;;;4701175;30;8825;-62
2022/04/29 11:55:35;;;;;;;;;17.67;16.67;20.40;47.60;;;;;;4700669;30;8889;-62
2022/04/29 11:58:01;;;;;;;;;18.00;16.33;21.10;46.50;;;;;;4701168;30;8797;-63
2022/04/29 12:00:29;;;;;;;;;21.33;19.67;21.30;44.80;;;;;;4700940;30;8924;-62
2022/04/29 12:02:56;;;;;;;;;19.33;17.33;21.10;44.20;;;;;;4714318;30;8844;-61
2022/04/29 12:05:27;;;;;;;;;15.00;15.00;21.10;46.30;;;;;;4700800;30;8837;-62
2022/04/29 12:07:54;;;;;;;;;17.00;17.00;20.40;47.90;;;;;;4700886;30;8903;-63
2022/04/29 12:10:22;;;;;;;;;19.67;19.67;20.20;48.90;;;;;;4700814;30;8906;-61
2022/04/29 12:12:49;;;;;;;;;20.00;18.00;20.50;48.90;;;;;;4700843;30;8813;-63
2022/04/29 12:15:20;;;;;;;;;26.67;25.67;20.20;49.30;;;;;;4700530;30;9605;-61
2022/04/29 12:17:50;;;;;;;;;21.67;21.67;20.90;47.90;;;;;;4701175;30;9472;-62
2022/04/29 12:20:20;;;;;;;;;22.67;22.00;21.20;48.70;;;;;;4700838;30;9457;-62
2022/04/29 12:22:50;;;;;;;;;19.00;17.67;21.70;49.40;;;;;;4700943;30;8809;-61
2022/04/29 12:25:58;;;;;;;;;19.00;19.00;22.10;48.10;;;;;;4700873;30;8830;-61
2022/04/29 12:28:27;;;;;;;;;18.67;18.67;22.10;47.00;;;;;;4646721;30;8865;-63
2022/04/29 12:36:52;;;;;;;;;20.33;18.33;23.00;45.10;;;;;;4646355;30;11824;-62
2022/04/29 12:39:22;;;;;;;;;14.00;14.00;23.30;45.70;;;;;;4646232;30;8969;-62
2022/04/29 12:42:00;;;;;;;;;17.00;17.00;23.30;42.50;;;;;;4644401;30;12459;-63
2022/04/29 12:47:24;;;;;;;;;21.33;18.00;22.90;41.50;;;;;;4645247;30;11787;-61
2022/04/29 12:49:51;;;;;;;;;20.67;19.33;22.40;44.70;;;;;;4643446;30;8843;-63
2022/04/29 12:52:17;;;;;;;;;22.00;20.67;22.40;45.10;;;;;;4645370;30;8941;-61
2022/04/29 12:54:42;;;;;;;;;19.67;18.67;22.20;44.80;;;;;;4645760;30;8985;-63
2022/04/29 12:57:09;;;;;;;;;17.67;17.67;22.50;43.40;;;;;;4646222;30;8869;-64
2022/04/29 12:59:37;;;;;;;;;14.67;14.67;21.50;45.00;;;;;;4648150;30;9522;-66
2022/04/29 13:02:07;;;;;;;;;19.00;18.33;21.60;42.80;;;;;;4667442;30;11755;-63
2022/04/29 13:04:33;;;;;;;;;16.00;15.33;21.80;43.50;;;;;;4702369;30;11771;-66
2022/04/29 13:06:59;;;;;;;;;17.33;17.33;21.70;43.80;;;;;;4701942;30;11776;-65
2022/04/29 13:09:26;;;;;;;;;14.67;14.67;21.60;43.80;;;;;;4702315;30;11758;-65
2022/04/29 13:11:54;;;;;;;;;19.00;16.67;21.40;44.80;;;;;;4702187;30;8810;-66
2022/04/29 13:14:19;;;;;;;;;20.67;20.67;21.90;43.70;;;;;;4701128;30;11783;-64
2022/04/29 13:16:47;;;;;;;;;16.67;16.67;21.90;42.60;;;;;;4701807;30;11816;-64
2022/04/29 13:19:13;;;;;;;;;19.33;16.67;21.80;43.50;;;;;;4702051;30;8940;-64